Main page
METAR-TAF:

METAR-TAF

Airports :

Wiener Neustadt East Airport

Wiener Neustadt, Austria

latitude: 47-50-36N, longitude: 016-15-29E, elevation: 272 m

Current weather observation

The report was made 10 hours and 31 minutes ago, at 19:00 UTC
Wind 3 kt from the West/Northwest
Temperature
Pressure

METAR: LOAN 171900Z 30003KT 40KM SCT080AC BKN120AC

Time: 07:31 (05:31 UTC)

Forecast

The report was made 18 hours and 6 minutes ago, at 11:25 UTC
Forecast valid from 17 at 12 UTC to 17 at 21 UTC
Wind 10 kt from the Northwest
Visibility 10 km or more
Few clouds at a height of 5000 ft
Temporary
from 17 at 12 UTC to 17 at 17 UTC
Wind 15 kt from the North
Scattered clouds at a height of 6000 ft
Few clouds at a height of 7000 ft, Towering cumulus.
Broken clouds at a height of 12000 ft

TAF: LOAN 171125Z 1712/1721 32010KT 9999 FEW050 TEMPO 1712/1717 36015KT SCT060 FEW070TCU BKN120

Weather observations and forecasts of more than 4000 airports (METAR and TAF reports).

The available stations are represented by yellow and red dots on the map.

Hover mouse over dot to see the name of the station.

Then click to see weather observations and forecasts.

To change the map : click on the green buttons with a black cross to zoom in, on the green button with a dash to zoom out, or on the green arrows for adjacent maps.


METAR-TAF: